Baden Baden, Illinois
Current Conditions -  °F | °C
As of 12:33 AM on Sunday 26 Oct 2014 (Local Time) from KBLV Reporting Station
Clear Clear  
Wind Chill: 54°   Ceiling: Unl
Heat Index: 54°   Visibility: 9mi
Dew Point: 54°   Wind: 2mph
Humidity: 100%   Direction: 340°NNW
Pressure: 30.01"   Gusts: NA
Location:  38.7728°N, 89.5031°W
Report Text: KBLV 260533Z AUTO 34002KT 9SM CLR 12/12 A3001 RMK AO2
Loading
Personal Weather Stations






























Interactive Weather Map
Tropical Storm Tracking
New forecast layout! Learn more

10-Day Weather Forecast

Advertisements
Track Severe Weather on mobile